createdAt,value
2023-04-16T00:02:17.417Z,26.30
2023-04-16T00:04:45.046Z,26.13
2023-04-16T00:07:16.051Z,26.24
2023-04-16T00:09:43.472Z,26.14
2023-04-16T00:12:11.159Z,26.42
2023-04-16T00:14:38.845Z,26.69
2023-04-16T00:17:06.331Z,26.38
2023-04-16T00:19:33.963Z,26.48
2023-04-16T00:22:01.430Z,26.71
2023-04-16T00:24:28.931Z,26.46
2023-04-16T00:26:57.332Z,26.96
2023-04-16T00:29:24.865Z,26.66
2023-04-16T00:31:52.383Z,26.77
2023-04-16T00:34:19.810Z,26.97
2023-04-16T00:36:47.360Z,26.71
2023-04-16T00:39:14.833Z,26.95
2023-04-16T00:41:44.135Z,27.25
2023-04-16T00:44:11.582Z,27.30
2023-04-16T00:46:39.595Z,27.18
2023-04-16T00:49:07.191Z,27.56
2023-04-16T00:51:36.177Z,27.34
2023-04-16T00:54:04.567Z,27.54
2023-04-16T00:56:33.645Z,27.15
2023-04-16T00:59:01.707Z,27.67
2023-04-16T01:01:29.132Z,28.08
2023-04-16T01:03:57.178Z,27.50
2023-04-16T01:06:24.676Z,27.53
2023-04-16T01:08:52.223Z,28.23
2023-04-16T01:11:19.663Z,27.72
2023-04-16T01:13:47.123Z,28.04
2023-04-16T01:16:14.992Z,28.04
2023-04-16T01:18:42.665Z,27.95
2023-04-16T01:21:10.155Z,28.47
2023-04-16T01:23:37.668Z,28.00
2023-04-16T01:26:05.267Z,27.93
2023-04-16T01:28:32.760Z,28.41
2023-04-16T01:31:00.910Z,28.40
2023-04-16T01:33:40.990Z,28.13
2023-04-16T01:36:08.960Z,27.84
2023-04-16T01:38:36.635Z,28.20
2023-04-16T01:41:04.098Z,28.16
2023-04-16T01:43:31.505Z,28.60
2023-04-16T01:46:31.393Z,28.73
2023-04-16T01:48:59.167Z,28.26
2023-04-16T01:51:27.665Z,28.78
2023-04-16T01:53:55.782Z,28.61
2023-04-16T01:56:23.295Z,28.92
2023-04-16T01:58:51.002Z,28.84
2023-04-16T02:01:19.794Z,28.96
2023-04-16T02:03:48.548Z,29.47
2023-04-16T02:06:16.872Z,29.02
2023-04-16T02:08:44.491Z,28.70
2023-04-16T02:11:12.058Z,29.15
2023-04-16T02:13:39.782Z,29.02
2023-04-16T02:16:07.670Z,29.01
2023-04-16T02:18:53.011Z,28.76
2023-04-16T02:21:23.111Z,29.23
2023-04-16T02:23:52.204Z,28.99
2023-04-16T02:26:26.787Z,28.96
2023-04-16T02:28:56.975Z,29.26
2023-04-16T02:31:29.966Z,28.60
2023-04-16T02:33:58.535Z,27.05
2023-04-16T02:36:26.161Z,25.98
2023-04-16T02:38:54.478Z,25.60
2023-04-16T02:41:21.917Z,24.19
2023-04-16T02:43:49.476Z,23.57
2023-04-16T02:46:17.150Z,22.49
2023-04-16T02:48:44.858Z,21.92
2023-04-16T02:51:12.270Z,21.21
2023-04-16T02:53:40.337Z,20.83
2023-04-16T02:56:08.021Z,19.91
2023-04-16T02:58:35.570Z,19.33
2023-04-16T03:01:03.194Z,18.99
2023-04-16T03:03:30.782Z,18.06
2023-04-16T03:05:58.349Z,17.54
2023-04-16T03:08:26.040Z,17.52
2023-04-16T03:10:56.512Z,17.04
2023-04-16T03:13:23.927Z,16.76
2023-04-16T03:15:51.532Z,16.40
2023-04-16T03:18:19.129Z,15.86
2023-04-16T03:20:47.698Z,15.64
2023-04-16T03:23:18.167Z,15.03
2023-04-16T03:25:48.195Z,15.18
2023-04-16T03:28:18.562Z,15.00
2023-04-16T03:30:53.286Z,14.71
2023-04-16T03:33:21.549Z,14.38
2023-04-16T03:35:56.298Z,14.14
2023-04-16T03:38:26.120Z,13.87
2023-04-16T03:40:56.576Z,13.63
2023-04-16T03:43:24.314Z,13.37
2023-04-16T03:45:51.921Z,13.17
2023-04-16T03:48:22.586Z,13.07
2023-04-16T03:50:51.064Z,12.92
2023-04-16T03:53:20.650Z,12.60
2023-04-16T03:55:56.337Z,12.20
2023-04-16T03:58:24.560Z,12.09
2023-04-16T04:00:59.284Z,12.11
2023-04-16T04:03:32.487Z,12.11
2023-04-16T04:06:10.391Z,11.73
2023-04-16T04:08:38.398Z,11.83
2023-04-16T04:11:06.836Z,11.64
2023-04-16T04:13:35.732Z,11.08
2023-04-16T04:16:05.093Z,11.06
2023-04-16T04:18:33.514Z,11.08
2023-04-16T04:21:07.979Z,10.94
2023-04-16T04:23:45.029Z,10.81
2023-04-16T04:26:15.828Z,10.92
2023-04-16T04:28:46.336Z,10.54
2023-04-16T04:31:18.661Z,10.28
2023-04-16T04:33:46.808Z,10.28
2023-04-16T04:36:14.262Z,10.48
2023-04-16T04:38:42.683Z,10.22
2023-04-16T04:41:10.193Z,10.16
2023-04-16T04:43:39.068Z,9.92
2023-04-16T04:46:07.213Z,10.25
2023-04-16T04:48:34.911Z,9.94
2023-04-16T04:51:05.437Z,9.61
2023-04-16T04:53:36.768Z,9.39
2023-04-16T04:56:12.280Z,9.53
2023-04-16T04:58:41.747Z,9.26
2023-04-16T05:01:09.485Z,9.34
2023-04-16T05:03:37.019Z,9.08
2023-04-16T05:06:04.789Z,9.22
2023-04-16T05:08:32.201Z,8.96
2023-04-16T05:10:59.773Z,9.11
2023-04-16T05:13:27.394Z,9.25
2023-04-16T05:15:55.098Z,9.00
2023-04-16T05:18:22.490Z,9.04
2023-04-16T05:20:49.968Z,8.67
2023-04-16T05:23:17.448Z,8.94
2023-04-16T05:25:44.909Z,8.59
2023-04-16T05:28:12.348Z,9.03
2023-04-16T05:30:39.823Z,8.80
2023-04-16T05:33:07.325Z,8.84
2023-04-16T05:35:35.417Z,8.65
2023-04-16T05:38:04.764Z,8.19
2023-04-16T05:40:32.676Z,8.40
2023-04-16T05:43:00.352Z,8.47
2023-04-16T05:45:28.194Z,8.79
2023-04-16T05:47:55.894Z,8.05
2023-04-16T05:50:23.439Z,8.40
2023-04-16T05:52:50.898Z,8.28
2023-04-16T05:55:18.408Z,7.92
2023-04-16T05:57:45.897Z,8.43
2023-04-16T06:00:13.552Z,7.94
2023-04-16T06:02:41.586Z,8.40
2023-04-16T06:05:10.714Z,8.49
2023-04-16T06:07:41.267Z,8.26
2023-04-16T06:10:11.995Z,8.48
2023-04-16T06:12:39.543Z,7.94
2023-04-16T06:15:10.081Z,8.10
2023-04-16T06:17:37.694Z,7.98
2023-04-16T06:20:05.734Z,7.77
2023-04-16T06:22:33.246Z,7.78
2023-04-16T06:25:01.247Z,7.63
2023-04-16T06:27:28.988Z,7.83
2023-04-16T06:29:57.784Z,7.96
2023-04-16T06:32:25.791Z,7.91
2023-04-16T06:34:53.328Z,8.08
2023-04-16T06:37:21.185Z,8.25
2023-04-16T06:39:48.636Z,8.60
2023-04-16T06:42:16.175Z,8.41
2023-04-16T06:44:43.841Z,8.45
2023-04-16T06:47:11.554Z,8.39
2023-04-16T06:49:40.187Z,8.52
2023-04-16T06:52:07.838Z,8.06
2023-04-16T06:54:35.577Z,8.10
2023-04-16T06:57:03.067Z,8.08
2023-04-16T06:59:30.562Z,7.89
2023-04-16T07:01:58.344Z,7.75
2023-04-16T07:04:26.307Z,8.27
2023-04-16T07:06:53.797Z,8.37
2023-04-16T07:09:24.616Z,8.71
2023-04-16T07:11:52.242Z,8.69
2023-04-16T07:14:19.765Z,8.80
2023-04-16T07:16:47.284Z,9.01
2023-04-16T07:19:15.039Z,9.15
2023-04-16T07:21:46.390Z,9.33
2023-04-16T07:24:14.090Z,9.90
2023-04-16T07:26:41.825Z,9.77
2023-04-16T07:29:09.468Z,9.78
2023-04-16T07:31:37.391Z,10.23
2023-04-16T07:34:05.045Z,10.28
2023-04-16T07:36:32.636Z,10.40
2023-04-16T07:39:00.138Z,10.25
2023-04-16T07:41:29.753Z,10.79
2023-04-16T07:43:57.998Z,11.02
2023-04-16T07:46:30.413Z,11.26
2023-04-16T07:49:00.881Z,11.80
2023-04-16T07:51:28.456Z,11.73
2023-04-16T07:53:56.027Z,11.50
2023-04-16T07:56:23.497Z,11.62
2023-04-16T07:58:51.049Z,11.68
2023-04-16T08:01:18.483Z,11.98
2023-04-16T08:03:46.380Z,11.87
2023-04-16T08:06:13.947Z,12.45
2023-04-16T08:08:41.754Z,12.48
2023-04-16T08:11:09.439Z,12.62
2023-04-16T08:13:37.131Z,12.55
2023-04-16T08:16:07.743Z,12.86
2023-04-16T08:18:35.339Z,12.85
2023-04-16T08:21:02.979Z,12.99
2023-04-16T08:23:30.660Z,12.95
2023-04-16T08:25:58.118Z,12.80
2023-04-16T08:28:25.692Z,13.14
2023-04-16T08:30:53.434Z,13.38
2023-04-16T08:33:21.937Z,13.31
2023-04-16T08:35:49.398Z,13.36
2023-04-16T08:38:18.658Z,13.72
2023-04-16T08:40:47.412Z,13.63
2023-04-16T08:43:16.605Z,13.88
2023-04-16T08:45:45.088Z,13.76
2023-04-16T08:48:12.832Z,13.74
2023-04-16T08:50:41.594Z,13.92
2023-04-16T08:53:23.967Z,14.20
2023-04-16T08:55:58.454Z,14.58
2023-04-16T08:58:36.002Z,14.57
2023-04-16T09:01:07.074Z,14.76
2023-04-16T09:03:36.597Z,14.86
2023-04-16T09:06:05.183Z,14.97
2023-04-16T09:08:36.329Z,15.29
2023-04-16T09:11:04.886Z,15.38
2023-04-16T09:13:32.598Z,15.42
2023-04-16T09:16:03.882Z,15.46
2023-04-16T09:18:34.013Z,15.31
2023-04-16T09:21:06.600Z,15.47
2023-04-16T09:23:34.058Z,15.42
2023-04-16T09:26:01.688Z,15.73
2023-04-16T09:28:47.381Z,15.90
2023-04-16T09:31:17.513Z,15.99
2023-04-16T09:34:04.400Z,16.64
2023-04-16T09:36:32.956Z,16.67
2023-04-16T09:39:01.145Z,16.73
2023-04-16T09:41:31.526Z,17.29
2023-04-16T09:44:07.237Z,17.03
2023-04-16T09:46:42.372Z,17.16
2023-04-16T09:49:21.580Z,17.07
2023-04-16T09:51:54.940Z,17.46
2023-04-16T09:54:22.417Z,17.46
2023-04-16T09:56:49.836Z,17.57
2023-04-16T09:59:18.484Z,17.62
2023-04-16T10:01:49.953Z,18.04
2023-04-16T10:04:18.019Z,17.84
2023-04-16T10:06:48.744Z,18.39
2023-04-16T10:09:16.441Z,18.74
2023-04-16T10:11:44.166Z,18.86
2023-04-16T10:14:14.430Z,19.04
2023-04-16T10:16:42.273Z,18.93
2023-04-16T10:19:10.269Z,19.05
2023-04-16T10:21:38.297Z,19.14
2023-04-16T10:24:06.212Z,19.42
2023-04-16T10:26:34.298Z,19.62
2023-04-16T10:29:03.208Z,19.35
2023-04-16T10:31:31.624Z,19.41
2023-04-16T10:33:59.804Z,19.15
2023-04-16T10:36:27.505Z,19.47
2023-04-16T10:39:00.214Z,19.61
2023-04-16T10:41:27.932Z,19.13
2023-04-16T10:44:12.629Z,19.51
2023-04-16T10:46:42.436Z,19.47
2023-04-16T10:49:20.554Z,19.50
2023-04-16T10:51:58.279Z,19.24
2023-04-16T10:54:28.526Z,19.50
2023-04-16T10:57:06.453Z,19.71
2023-04-16T10:59:38.748Z,19.63
2023-04-16T11:02:16.627Z,19.84
2023-04-16T11:04:50.840Z,19.60
2023-04-16T11:07:20.835Z,19.24
2023-04-16T11:09:59.707Z,18.96
2023-04-16T11:12:51.013Z,19.61
2023-04-16T11:15:22.226Z,19.88
2023-04-16T11:17:52.071Z,19.70
2023-04-16T11:20:27.202Z,19.65
2023-04-16T11:22:56.904Z,19.47
2023-04-16T11:25:30.281Z,19.80
2023-04-16T11:28:01.662Z,19.59
2023-04-16T11:30:30.786Z,19.53
2023-04-16T11:32:58.462Z,19.39
2023-04-16T11:35:26.056Z,19.94
2023-04-16T11:38:00.203Z,19.75
2023-04-16T11:40:31.750Z,19.60
2023-04-16T11:43:17.888Z,19.70
2023-04-16T11:46:16.740Z,19.69
2023-04-16T11:48:54.152Z,19.66
2023-04-16T11:51:23.760Z,19.56
2023-04-16T11:53:53.520Z,20.12
2023-04-16T11:56:30.979Z,19.49
2023-04-16T11:59:20.779Z,19.63
2023-04-16T12:01:51.583Z,19.93
2023-04-16T12:04:25.158Z,19.58
2023-04-16T12:07:13.265Z,19.48
2023-04-16T12:09:42.638Z,19.17
2023-04-16T12:12:27.638Z,19.36
2023-04-16T12:14:57.125Z,19.73
2023-04-16T12:17:25.296Z,19.95
2023-04-16T12:19:57.150Z,19.30
2023-04-16T12:22:35.983Z,19.75
2023-04-16T12:25:11.438Z,19.70
2023-04-16T12:27:53.306Z,19.34
2023-04-16T12:30:28.786Z,20.22
2023-04-16T12:33:18.829Z,19.46
2023-04-16T12:35:46.720Z,19.72
2023-04-16T12:38:15.742Z,19.67
2023-04-16T12:40:43.537Z,20.06
2023-04-16T12:43:11.466Z,19.94
2023-04-16T12:45:39.895Z,20.10
2023-04-16T12:48:07.821Z,20.15
2023-04-16T12:50:39.869Z,20.13
2023-04-16T12:53:09.670Z,20.00
2023-04-16T12:55:37.267Z,20.06
2023-04-16T12:58:07.149Z,20.29
2023-04-16T13:00:34.723Z,20.46
2023-04-16T13:03:02.400Z,20.16
2023-04-16T13:05:30.005Z,20.52
2023-04-16T13:07:57.650Z,20.47
2023-04-16T13:10:25.312Z,20.65
2023-04-16T13:12:53.038Z,20.23
2023-04-16T13:15:20.760Z,20.67
2023-04-16T13:17:48.567Z,20.57
2023-04-16T13:20:16.349Z,20.57
2023-04-16T13:22:43.823Z,20.95
2023-04-16T13:25:14.341Z,21.06
2023-04-16T13:27:41.852Z,20.80
2023-04-16T13:30:12.595Z,20.80
2023-04-16T13:32:41.135Z,20.94
2023-04-16T13:35:13.304Z,21.04
2023-04-16T13:37:42.230Z,20.81
2023-04-16T13:40:14.806Z,21.06
2023-04-16T13:43:11.845Z,20.98
2023-04-16T13:45:39.729Z,20.84
2023-04-16T13:48:07.238Z,21.10
2023-04-16T13:50:35.446Z,21.07
2023-04-16T13:53:03.046Z,20.83
2023-04-16T13:55:32.288Z,21.35
2023-04-16T13:58:00.112Z,21.40
2023-04-16T14:00:27.920Z,21.30
2023-04-16T14:02:55.726Z,21.42
2023-04-16T14:05:25.797Z,21.49
2023-04-16T14:07:54.715Z,21.25
2023-04-16T14:10:22.145Z,21.80
2023-04-16T14:12:49.875Z,21.98
2023-04-16T14:15:17.798Z,21.83
2023-04-16T14:17:45.647Z,21.51
2023-04-16T14:20:14.380Z,21.93
2023-04-16T14:22:42.741Z,21.65
2023-04-16T14:25:10.413Z,21.76
2023-04-16T14:27:37.930Z,22.30
2023-04-16T14:30:06.432Z,21.98
2023-04-16T14:32:36.655Z,21.84
2023-04-16T14:35:04.666Z,21.73
2023-04-16T14:37:36.556Z,21.82
2023-04-16T14:40:09.112Z,21.95
2023-04-16T14:42:37.800Z,21.95
2023-04-16T14:45:09.131Z,21.45
2023-04-16T14:47:38.453Z,21.98
2023-04-16T14:50:06.758Z,21.78
2023-04-16T14:52:34.474Z,21.84
2023-04-16T14:55:02.080Z,22.35
2023-04-16T14:57:30.204Z,22.55
2023-04-16T14:59:57.733Z,22.06
2023-04-16T15:02:26.762Z,22.55
2023-04-16T15:04:54.983Z,22.84
2023-04-16T15:07:22.555Z,22.61
2023-04-16T15:09:50.142Z,22.70
2023-04-16T15:12:19.147Z,22.64
2023-04-16T15:14:46.724Z,22.48
2023-04-16T15:17:14.267Z,22.44
2023-04-16T15:19:41.699Z,23.22
2023-04-16T15:22:09.278Z,22.95
2023-04-16T15:24:36.767Z,23.02
2023-04-16T15:27:06.184Z,23.18
2023-04-16T15:29:33.724Z,23.04
2023-04-16T15:32:01.402Z,22.84
2023-04-16T15:34:28.813Z,22.84
2023-04-16T15:36:57.038Z,22.78
2023-04-16T15:39:24.594Z,22.85
2023-04-16T15:42:01.234Z,22.93
2023-04-16T15:44:31.847Z,23.09
2023-04-16T15:46:59.777Z,22.83
2023-04-16T15:49:27.455Z,22.99
2023-04-16T15:51:56.298Z,22.86
2023-04-16T15:54:26.848Z,23.06
2023-04-16T15:56:54.418Z,23.03
2023-04-16T15:59:24.512Z,23.12
2023-04-16T16:01:52.080Z,23.38
2023-04-16T16:04:21.737Z,23.56
2023-04-16T16:06:55.300Z,23.18
2023-04-16T16:09:26.946Z,23.36
2023-04-16T16:11:57.459Z,23.44
2023-04-16T16:14:24.965Z,23.10
2023-04-16T16:16:55.022Z,23.23
2023-04-16T16:19:22.528Z,23.39
2023-04-16T16:21:50.507Z,23.47
2023-04-16T16:24:18.612Z,23.74
2023-04-16T16:26:46.132Z,23.33
2023-04-16T16:29:13.939Z,23.52
2023-04-16T16:31:41.640Z,22.94
2023-04-16T16:34:11.121Z,23.89
2023-04-16T16:36:47.246Z,23.52
2023-04-16T16:39:14.938Z,23.24
2023-04-16T16:41:43.317Z,23.22
2023-04-16T16:44:11.246Z,23.70
2023-04-16T16:46:38.748Z,23.57
2023-04-16T16:49:07.257Z,23.45
2023-04-16T16:51:34.993Z,23.78
2023-04-16T16:54:05.566Z,23.45
2023-04-16T16:56:33.076Z,23.95
2023-04-16T16:59:02.186Z,23.73
2023-04-16T17:01:30.263Z,24.03
2023-04-16T17:03:58.300Z,24.05
2023-04-16T17:06:26.903Z,24.53
2023-04-16T17:08:55.350Z,23.82
2023-04-16T17:11:22.795Z,24.17
2023-04-16T17:13:52.086Z,24.34
2023-04-16T17:16:19.782Z,24.32
2023-04-16T17:18:51.125Z,24.67
2023-04-16T17:21:21.328Z,23.91
2023-04-16T17:23:48.780Z,24.13
2023-04-16T17:26:16.399Z,24.18
2023-04-16T17:28:43.932Z,24.34
2023-04-16T17:31:12.363Z,24.18
2023-04-16T17:33:40.297Z,24.01
2023-04-16T17:36:08.123Z,24.10
2023-04-16T17:38:35.827Z,24.41
2023-04-16T17:41:03.950Z,24.05
2023-04-16T17:43:31.353Z,24.00
2023-04-16T17:45:59.049Z,24.06
2023-04-16T17:48:26.635Z,23.96
2023-04-16T17:50:54.203Z,24.13
2023-04-16T17:53:22.508Z,24.21
2023-04-16T17:55:56.009Z,23.75
2023-04-16T17:58:26.739Z,24.38
2023-04-16T18:00:54.279Z,24.48
2023-04-16T18:03:22.207Z,24.53
2023-04-16T18:05:50.130Z,24.13
2023-04-16T18:08:17.637Z,23.90
2023-04-16T18:10:47.766Z,24.67
2023-04-16T18:13:17.042Z,24.41
2023-04-16T18:15:44.671Z,24.40
2023-04-16T18:18:12.242Z,24.72
2023-04-16T18:20:42.434Z,24.31
2023-04-16T18:23:10.143Z,24.47
2023-04-16T18:25:38.140Z,24.37
2023-04-16T18:28:07.599Z,24.51
2023-04-16T18:30:35.964Z,24.66
2023-04-16T18:33:25.282Z,24.40
2023-04-16T18:35:51.078Z,24.68
2023-04-16T18:38:18.526Z,24.82
2023-04-16T18:40:47.185Z,24.87
2023-04-16T18:43:14.672Z,24.79
2023-04-16T18:45:42.272Z,25.02
2023-04-16T18:48:09.684Z,24.75
2023-04-16T18:50:37.124Z,24.99
2023-04-16T18:53:04.666Z,24.88
2023-04-16T18:55:32.119Z,25.11
2023-04-16T18:58:01.925Z,25.07
2023-04-16T19:00:29.472Z,25.26
2023-04-16T19:02:57.087Z,25.33
2023-04-16T19:05:24.606Z,25.20
2023-04-16T19:07:52.084Z,25.48
2023-04-16T19:10:19.681Z,25.66
2023-04-16T19:12:47.099Z,25.50
2023-04-16T19:15:15.120Z,25.58
2023-04-16T19:17:42.706Z,25.38
2023-04-16T19:20:11.674Z,25.47
2023-04-16T19:22:39.406Z,25.52
2023-04-16T19:25:07.533Z,25.49
2023-04-16T19:27:35.241Z,25.76
2023-04-16T19:30:03.568Z,25.44
2023-04-16T19:32:31.499Z,25.94
2023-04-16T19:34:59.226Z,25.94
2023-04-16T19:37:27.421Z,25.78
2023-04-16T19:39:55.369Z,25.76
2023-04-16T19:42:22.785Z,25.89
2023-04-16T19:44:50.263Z,25.93
2023-04-16T19:47:20.382Z,26.26
2023-04-16T19:49:47.919Z,26.24
2023-04-16T19:52:16.660Z,25.95
2023-04-16T19:54:44.196Z,25.97
2023-04-16T19:57:11.679Z,26.25
2023-04-16T19:59:39.437Z,26.33
2023-04-16T20:02:07.461Z,25.99
2023-04-16T20:04:35.681Z,25.92
2023-04-16T20:07:06.203Z,26.30
2023-04-16T20:09:33.659Z,26.02
2023-04-16T20:12:02.295Z,25.95
2023-04-16T20:14:33.195Z,26.30
2023-04-16T20:17:02.208Z,26.15
2023-04-16T20:19:38.090Z,26.67
2023-04-16T20:22:06.869Z,26.08
2023-04-16T20:24:36.235Z,26.22
2023-04-16T20:27:03.809Z,26.67
2023-04-16T20:29:31.553Z,26.52
2023-04-16T20:31:59.840Z,26.60
2023-04-16T20:34:30.293Z,26.53
2023-04-16T20:36:58.275Z,26.39
2023-04-16T20:39:28.637Z,26.62
2023-04-16T20:41:58.867Z,26.54
2023-04-16T20:44:33.433Z,26.83
2023-04-16T20:47:01.062Z,26.74
2023-04-16T20:49:30.411Z,26.39
2023-04-16T20:51:57.841Z,26.69
2023-04-16T20:54:25.296Z,26.92
2023-04-16T20:56:52.732Z,26.79
2023-04-16T20:59:20.298Z,27.00
2023-04-16T21:01:48.080Z,26.97
2023-04-16T21:04:17.172Z,27.06
2023-04-16T21:06:45.639Z,27.20
2023-04-16T21:09:13.751Z,27.37
2023-04-16T21:11:42.793Z,27.74
2023-04-16T21:14:10.314Z,26.86
2023-04-16T21:16:37.874Z,27.03
2023-04-16T21:19:06.971Z,27.39
2023-04-16T21:21:34.435Z,27.21
2023-04-16T21:24:01.961Z,27.08
2023-04-16T21:26:29.298Z,27.20
2023-04-16T21:28:56.797Z,27.58
2023-04-16T21:31:26.996Z,27.59
2023-04-16T21:33:54.723Z,27.33
2023-04-16T21:36:22.657Z,27.55
2023-04-16T21:38:50.107Z,27.60
2023-04-16T21:41:17.574Z,27.52
2023-04-16T21:43:44.984Z,27.41
2023-04-16T21:46:12.406Z,27.50
2023-04-16T21:48:39.895Z,27.32
2023-04-16T21:51:08.350Z,27.55
2023-04-16T21:53:39.357Z,27.90
2023-04-16T21:56:08.169Z,27.95
2023-04-16T21:58:36.186Z,28.24
2023-04-16T22:01:03.793Z,27.89
2023-04-16T22:03:31.484Z,27.66
2023-04-16T22:06:02.272Z,28.03
2023-04-16T22:08:32.397Z,27.57
2023-04-16T22:11:02.134Z,27.71
2023-04-16T22:13:32.717Z,28.02
2023-04-16T22:16:03.694Z,27.63
2023-04-16T22:18:34.437Z,28.01
2023-04-16T22:21:02.324Z,28.10
2023-04-16T22:23:29.825Z,27.92
2023-04-16T22:25:59.459Z,27.92
2023-04-16T22:28:27.565Z,27.91
2023-04-16T22:30:57.878Z,27.86
2023-04-16T22:33:25.423Z,28.26
2023-04-16T22:35:52.878Z,28.23
2023-04-16T22:38:20.228Z,28.23
2023-04-16T22:40:49.254Z,27.51
2023-04-16T22:43:17.872Z,28.22
2023-04-16T22:45:46.696Z,28.21
2023-04-16T22:48:14.334Z,28.35
2023-04-16T22:50:48.734Z,28.29
2023-04-16T22:53:16.350Z,27.98
2023-04-16T22:55:43.797Z,27.90
2023-04-16T22:58:11.353Z,28.20
2023-04-16T23:00:38.801Z,28.22
2023-04-16T23:03:06.374Z,27.89
2023-04-16T23:05:34.881Z,27.70
2023-04-16T23:08:02.295Z,28.19
2023-04-16T23:10:29.782Z,28.43
2023-04-16T23:12:57.294Z,27.92
2023-04-16T23:15:24.732Z,28.22
2023-04-16T23:17:52.464Z,28.31
2023-04-16T23:20:20.084Z,27.82
2023-04-16T23:22:47.635Z,27.84
2023-04-16T23:25:15.099Z,27.71
2023-04-16T23:27:42.517Z,27.89
2023-04-16T23:30:10.358Z,27.79
2023-04-16T23:32:38.040Z,28.01
2023-04-16T23:35:05.992Z,28.27
2023-04-16T23:37:33.387Z,28.25
2023-04-16T23:40:00.914Z,27.78
2023-04-16T23:42:28.849Z,28.19
2023-04-16T23:44:56.285Z,27.76
2023-04-16T23:47:23.892Z,28.22
2023-04-16T23:49:51.353Z,28.07
2023-04-16T23:52:18.969Z,28.34
2023-04-16T23:54:46.521Z,28.07
2023-04-16T23:57:14.012Z,28.56
2023-04-16T23:59:41.539Z,28.24
